Terminal Aerodrome Forecast
Issued by NWS Burlington, VT

Home | Current Version | Previous Version | Text Only | Print | Product List | Glossary On
Versions: 1 2 3 4 5 6 7 8 9 10 11 12 13
905
FTUS41 KBTV 191726
TAFBTV
TAF
KBTV 191726Z 1918/2018 15005KT P6SM SCT035 SCT110
     FM201000 00000KT 4SM BR SCT140
     FM201300 36004KT P6SM SCT150
     FM201600 35008KT P6SM SCT130=

USA.gov is the U.S. government's official web portal to all federal, state and local government web resources and services.